createdAt,value
2018-07-30T00:02:13.975Z,55.61
2018-07-30T00:04:42.777Z,55.23
2018-07-30T00:07:11.781Z,55.36
2018-07-30T00:09:40.552Z,55.60
2018-07-30T00:12:09.222Z,54.30
2018-07-30T00:14:38.242Z,55.31
2018-07-30T00:17:06.953Z,55.05
2018-07-30T00:19:35.585Z,55.00
2018-07-30T00:22:04.313Z,55.45
2018-07-30T00:24:33.105Z,55.80
2018-07-30T00:27:01.818Z,56.30
2018-07-30T00:29:31.490Z,55.43
2018-07-30T00:32:00.243Z,56.04
2018-07-30T00:34:28.927Z,55.69
2018-07-30T00:36:57.585Z,56.26
2018-07-30T00:39:26.274Z,56.02
2018-07-30T00:41:55.265Z,55.73
2018-07-30T00:44:24.529Z,56.22
2018-07-30T00:46:53.645Z,56.59
2018-07-30T00:49:22.291Z,56.60
2018-07-30T00:51:51.129Z,55.79
2018-07-30T00:54:20.208Z,56.28
2018-07-30T00:56:49.256Z,56.38
2018-07-30T00:59:18.006Z,57.03
2018-07-30T01:01:46.794Z,56.12
2018-07-30T01:04:15.472Z,57.43
2018-07-30T01:06:44.164Z,57.98
2018-07-30T01:09:12.900Z,57.72
2018-07-30T01:11:42.132Z,56.90
2018-07-30T01:14:14.330Z,57.70
2018-07-30T01:16:43.480Z,56.71
2018-07-30T01:19:12.136Z,57.50
2018-07-30T01:21:41.676Z,58.12
2018-07-30T01:24:10.393Z,57.76
2018-07-30T01:26:39.237Z,58.37
2018-07-30T01:29:07.930Z,58.40
2018-07-30T01:31:36.559Z,58.61
2018-07-30T01:34:05.479Z,58.37
2018-07-30T01:36:34.176Z,58.34
2018-07-30T01:39:03.128Z,58.40
2018-07-30T01:41:32.136Z,58.42
2018-07-30T01:44:00.813Z,59.19
2018-07-30T01:46:29.488Z,58.95
2018-07-30T01:48:59.909Z,59.31
2018-07-30T01:51:28.906Z,58.36
2018-07-30T01:53:57.919Z,58.38
2018-07-30T01:56:27.079Z,59.21
2018-07-30T01:58:56.064Z,58.40
2018-07-30T02:01:25.052Z,59.81
2018-07-30T02:03:54.608Z,58.79
2018-07-30T02:06:23.315Z,60.30
2018-07-30T02:08:51.996Z,58.98
2018-07-30T02:11:20.678Z,59.79
2018-07-30T02:13:49.404Z,59.30
2018-07-30T02:16:18.079Z,60.05
2018-07-30T02:18:48.844Z,59.75
2018-07-30T02:21:17.542Z,58.88
2018-07-30T02:23:46.471Z,58.73
2018-07-30T02:26:15.910Z,59.74
2018-07-30T02:28:44.663Z,58.90
2018-07-30T02:31:13.609Z,59.27
2018-07-30T02:33:42.392Z,59.71
2018-07-30T02:36:11.130Z,60.25
2018-07-30T02:38:39.815Z,59.30
2018-07-30T02:41:08.567Z,59.27
2018-07-30T02:43:37.290Z,59.38
2018-07-30T02:46:06.092Z,60.53
2018-07-30T02:48:34.727Z,59.16
2018-07-30T02:51:03.414Z,58.88
2018-07-30T02:53:32.028Z,59.33
2018-07-30T02:56:00.852Z,59.73
2018-07-30T02:58:29.811Z,59.47
2018-07-30T03:00:58.472Z,59.57
2018-07-30T03:03:27.799Z,60.90
2018-07-30T03:05:56.448Z,60.30
2018-07-30T03:08:25.044Z,60.57
2018-07-30T03:10:54.031Z,60.40
2018-07-30T03:13:22.699Z,60.63
2018-07-30T03:15:51.801Z,60.32
2018-07-30T03:18:20.546Z,60.89
2018-07-30T03:20:49.594Z,59.93
2018-07-30T03:23:18.280Z,60.68
2018-07-30T03:25:46.993Z,59.74
2018-07-30T03:28:15.901Z,60.52
2018-07-30T03:30:44.785Z,60.50
2018-07-30T03:33:13.875Z,60.23
2018-07-30T03:35:42.836Z,61.15
2018-07-30T03:38:11.786Z,60.85
2018-07-30T03:40:41.274Z,60.72
2018-07-30T03:43:10.584Z,61.04
2018-07-30T03:45:39.234Z,60.89
2018-07-30T03:48:08.270Z,61.40
2018-07-30T03:50:36.865Z,61.53
2018-07-30T03:53:05.977Z,61.81
2018-07-30T03:55:34.657Z,61.51
2018-07-30T03:58:03.541Z,61.17
2018-07-30T04:00:32.151Z,61.03
2018-07-30T04:03:00.868Z,60.64
2018-07-30T04:05:29.583Z,61.33
2018-07-30T04:07:58.608Z,60.43
2018-07-30T04:10:27.918Z,61.74
2018-07-30T04:12:56.600Z,61.77
2018-07-30T04:15:25.651Z,60.92
2018-07-30T04:17:55.144Z,61.50
2018-07-30T04:20:24.511Z,61.64
2018-07-30T04:22:53.178Z,61.52
2018-07-30T04:25:22.347Z,61.54
2018-07-30T04:27:51.350Z,61.11
2018-07-30T04:30:19.996Z,61.88
2018-07-30T04:32:48.726Z,61.57
2018-07-30T04:35:17.986Z,61.72
2018-07-30T04:37:46.653Z,62.40
2018-07-30T04:40:15.340Z,61.37
2018-07-30T04:42:44.370Z,61.82
2018-07-30T04:45:13.311Z,62.03
2018-07-30T04:47:42.087Z,62.21
2018-07-30T04:50:11.106Z,62.13
2018-07-30T04:52:39.962Z,62.42
2018-07-30T04:55:09.383Z,62.15
2018-07-30T04:57:38.376Z,62.95
2018-07-30T05:00:07.656Z,63.69
2018-07-30T05:02:36.739Z,63.21
2018-07-30T05:05:06.461Z,62.66
2018-07-30T05:07:35.423Z,63.10
2018-07-30T05:10:04.825Z,62.76
2018-07-30T05:12:33.625Z,63.82
2018-07-30T05:15:02.850Z,63.27
2018-07-30T05:17:31.828Z,64.08
2018-07-30T05:20:00.753Z,63.86
2018-07-30T05:22:29.443Z,63.90
2018-07-30T05:24:58.221Z,63.29
2018-07-30T05:27:26.946Z,63.13
2018-07-30T05:29:55.957Z,64.59
2018-07-30T05:32:25.132Z,63.02
2018-07-30T05:34:54.054Z,63.47
2018-07-30T05:37:23.547Z,64.00
2018-07-30T05:39:52.492Z,63.52
2018-07-30T05:42:21.231Z,64.46
2018-07-30T05:44:50.292Z,65.09
2018-07-30T05:47:18.954Z,64.62
2018-07-30T05:49:47.858Z,65.06
2018-07-30T05:52:16.612Z,64.26
2018-07-30T05:54:45.262Z,64.13
2018-07-30T05:57:13.907Z,64.92
2018-07-30T05:59:42.627Z,64.27
2018-07-30T06:02:11.564Z,64.44
2018-07-30T06:04:40.290Z,64.88
2018-07-30T06:07:09.017Z,64.60
2018-07-30T06:09:37.799Z,65.65
2018-07-30T06:12:06.492Z,65.50
2018-07-30T06:14:35.762Z,65.53
2018-07-30T06:17:04.750Z,64.44
2018-07-30T06:19:34.153Z,65.32
2018-07-30T06:22:02.855Z,65.15
2018-07-30T06:24:31.529Z,65.05
2018-07-30T06:27:00.189Z,65.16
2018-07-30T06:29:29.160Z,64.25
2018-07-30T06:31:58.135Z,65.48
2018-07-30T06:34:27.093Z,65.74
2018-07-30T06:36:55.796Z,64.33
2018-07-30T06:39:24.643Z,63.38
2018-07-30T06:41:53.662Z,64.25
2018-07-30T06:44:22.670Z,64.61
2018-07-30T06:46:51.678Z,65.87
2018-07-30T06:49:20.642Z,64.25
2018-07-30T06:51:49.638Z,64.68
2018-07-30T06:54:18.646Z,64.44
2018-07-30T06:56:47.360Z,64.22
2018-07-30T06:59:16.322Z,63.62
2018-07-30T07:01:45.107Z,64.15
2018-07-30T07:04:14.801Z,63.50
2018-07-30T07:06:43.727Z,63.98
2018-07-30T07:09:12.772Z,63.24
2018-07-30T07:11:42.135Z,62.89
2018-07-30T07:14:10.842Z,62.27
2018-07-30T07:16:39.671Z,62.03
2018-07-30T07:19:08.311Z,63.70
2018-07-30T07:21:37.741Z,62.55
2018-07-30T07:24:06.567Z,62.44
2018-07-30T07:26:35.548Z,63.63
2018-07-30T07:29:04.370Z,63.80
2018-07-30T07:31:33.280Z,63.12
2018-07-30T07:34:02.945Z,62.29
2018-07-30T07:36:31.657Z,61.85
2018-07-30T07:39:00.555Z,61.77
2018-07-30T07:41:29.197Z,62.15
2018-07-30T07:43:57.891Z,61.01
2018-07-30T07:46:27.010Z,57.92
2018-07-30T07:48:56.303Z,58.00
2018-07-30T07:51:25.510Z,57.62
2018-07-30T07:53:54.155Z,57.71
2018-07-30T07:56:23.802Z,58.47
2018-07-30T07:58:54.599Z,57.14
2018-07-30T08:01:23.598Z,56.97
2018-07-30T08:03:52.644Z,55.40
2018-07-30T08:06:21.502Z,56.94
2018-07-30T08:08:50.168Z,55.34
2018-07-30T08:11:18.852Z,54.53
2018-07-30T08:13:47.664Z,53.56
2018-07-30T08:16:16.529Z,52.36
2018-07-30T08:18:45.567Z,53.29
2018-07-30T08:21:14.318Z,52.59
2018-07-30T08:23:43.173Z,51.43
2018-07-30T08:26:12.096Z,52.94
2018-07-30T08:28:40.956Z,51.86
2018-07-30T08:31:09.805Z,48.94
2018-07-30T08:33:38.577Z,47.61
2018-07-30T08:36:07.457Z,48.15
2018-07-30T08:38:36.205Z,47.07
2018-07-30T08:41:04.890Z,46.15
2018-07-30T08:43:33.684Z,44.43
2018-07-30T08:46:02.678Z,42.60
2018-07-30T08:48:31.467Z,41.86
2018-07-30T08:51:00.907Z,42.06
2018-07-30T08:53:29.643Z,42.07
2018-07-30T08:55:58.312Z,41.37
2018-07-30T08:58:27.063Z,42.32
2018-07-30T09:00:57.631Z,40.68
2018-07-30T09:03:26.329Z,42.34
2018-07-30T09:05:55.144Z,43.98
2018-07-30T09:08:23.851Z,42.60
2018-07-30T09:10:52.612Z,42.31
2018-07-30T09:13:21.347Z,42.97
2018-07-30T09:15:50.083Z,42.79
2018-07-30T09:18:18.797Z,42.47
2018-07-30T09:20:47.476Z,42.43
2018-07-30T09:23:16.173Z,43.99
2018-07-30T09:25:44.965Z,42.89
2018-07-30T09:28:13.671Z,43.35
2018-07-30T09:30:42.447Z,42.63
2018-07-30T09:33:11.179Z,43.89
2018-07-30T09:35:39.837Z,42.73
2018-07-30T09:38:09.824Z,42.83
2018-07-30T09:40:38.539Z,43.08
2018-07-30T09:43:07.194Z,43.03
2018-07-30T09:45:35.881Z,43.63
2018-07-30T09:48:04.701Z,42.15
2018-07-30T09:50:33.428Z,42.96
2018-07-30T09:53:02.144Z,43.45
2018-07-30T09:55:30.829Z,44.39
2018-07-30T09:57:59.822Z,44.90
2018-07-30T10:00:33.523Z,43.92
2018-07-30T10:03:02.238Z,43.03
2018-07-30T10:05:30.929Z,43.27
2018-07-30T10:07:59.583Z,43.78
2018-07-30T10:10:28.272Z,41.96
2018-07-30T10:12:56.965Z,41.28
2018-07-30T10:15:25.949Z,41.56
2018-07-30T10:17:54.653Z,39.12
2018-07-30T10:20:23.262Z,38.81
2018-07-30T10:22:51.873Z,39.91
2018-07-30T10:25:20.591Z,34.79
2018-07-30T10:27:49.895Z,32.82
2018-07-30T10:30:18.714Z,34.21
2018-07-30T10:32:47.669Z,32.57
2018-07-30T10:35:17.104Z,36.46
2018-07-30T10:37:45.743Z,34.50
2018-07-30T10:40:14.486Z,34.31
2018-07-30T10:42:43.196Z,36.65
2018-07-30T10:45:12.150Z,33.52
2018-07-30T10:47:40.852Z,33.92
2018-07-30T10:50:09.597Z,33.06
2018-07-30T10:52:41.677Z,34.13
2018-07-30T10:55:10.373Z,34.39
2018-07-30T10:57:38.985Z,30.36
2018-07-30T11:00:08.050Z,32.26
2018-07-30T11:02:36.963Z,33.08
2018-07-30T11:05:06.121Z,35.28
2018-07-30T11:07:34.900Z,36.66
2018-07-30T11:10:04.153Z,36.52
2018-07-30T11:12:33.126Z,36.20
2018-07-30T11:15:01.857Z,34.96
2018-07-30T11:17:30.640Z,36.00
2018-07-30T11:19:59.332Z,35.79
2018-07-30T11:22:27.976Z,35.99
2018-07-30T11:24:56.695Z,34.81
2018-07-30T11:27:25.460Z,34.46
2018-07-30T11:29:54.506Z,34.04
2018-07-30T11:32:23.193Z,33.35
2018-07-30T11:34:51.882Z,34.94
2018-07-30T11:37:20.600Z,33.07
2018-07-30T11:39:49.407Z,32.45
2018-07-30T11:42:18.372Z,33.26
2018-07-30T11:44:47.048Z,29.39
2018-07-30T11:47:15.849Z,29.70
2018-07-30T11:49:44.583Z,37.34
2018-07-30T11:52:13.652Z,31.15
2018-07-30T11:54:42.719Z,30.70
2018-07-30T11:57:11.431Z,30.96
2018-07-30T11:59:40.148Z,29.38
2018-07-30T12:02:08.813Z,28.06
2018-07-30T12:04:37.804Z,27.42
2018-07-30T12:07:06.502Z,24.43
2018-07-30T12:09:35.695Z,21.63
2018-07-30T12:12:04.469Z,21.11
2018-07-30T12:14:33.573Z,19.24
2018-07-30T12:17:02.213Z,21.91
2018-07-30T12:19:31.506Z,21.08
2018-07-30T12:22:00.447Z,16.06
2018-07-30T12:24:29.774Z,20.54
2018-07-30T12:26:58.528Z,17.52
2018-07-30T12:29:27.581Z,18.94
2018-07-30T12:31:56.591Z,18.94
2018-07-30T12:34:25.298Z,16.00
2018-07-30T12:36:53.920Z,18.14
2018-07-30T12:39:22.558Z,21.81
2018-07-30T12:41:51.276Z,20.50
2018-07-30T12:44:20.229Z,15.84
2018-07-30T12:46:49.188Z,24.48
2018-07-30T12:49:17.816Z,17.69
2018-07-30T12:51:46.511Z,21.10
2018-07-30T12:54:15.549Z,22.74
2018-07-30T12:56:44.195Z,16.59
2018-07-30T12:59:13.522Z,25.55
2018-07-30T13:01:42.553Z,18.78
2018-07-30T13:04:11.207Z,22.13
2018-07-30T13:06:40.506Z,22.91
2018-07-30T13:09:09.601Z,20.79
2018-07-30T13:11:38.279Z,24.62
2018-07-30T13:14:06.898Z,23.24
2018-07-30T13:16:35.876Z,26.39
2018-07-30T13:19:05.359Z,20.63
2018-07-30T13:21:34.390Z,16.81
2018-07-30T13:24:03.122Z,24.48
2018-07-30T13:26:32.702Z,15.46
2018-07-30T13:29:01.356Z,12.39
2018-07-30T13:31:30.032Z,14.80
2018-07-30T13:33:58.666Z,16.95
2018-07-30T13:36:27.356Z,17.72
2018-07-30T13:38:56.038Z,15.73
2018-07-30T13:41:25.187Z,19.69
2018-07-30T13:43:54.002Z,22.64
2018-07-30T13:46:22.807Z,17.27
2018-07-30T13:48:51.676Z,27.11
2018-07-30T13:51:20.357Z,21.22
2018-07-30T13:53:49.356Z,26.11
2018-07-30T13:56:18.298Z,29.71
2018-07-30T13:58:46.969Z,25.53
2018-07-30T14:01:15.695Z,21.66
2018-07-30T14:03:44.736Z,12.00
2018-07-30T14:06:13.516Z,14.11
2018-07-30T14:08:42.447Z,22.86
2018-07-30T14:11:11.396Z,23.46
2018-07-30T14:13:40.198Z,27.10
2018-07-30T14:16:09.177Z,20.90
2018-07-30T14:18:37.885Z,27.26
2018-07-30T14:21:07.086Z,18.78
2018-07-30T14:23:36.057Z,28.70
2018-07-30T14:26:05.079Z,28.99
2018-07-30T14:28:34.038Z,21.48
2018-07-30T14:31:03.244Z,22.04
2018-07-30T14:33:32.277Z,21.62
2018-07-30T14:36:02.051Z,21.04
2018-07-30T14:38:30.727Z,20.01
2018-07-30T14:41:00.572Z,19.55
2018-07-30T14:43:29.478Z,20.04
2018-07-30T14:45:58.438Z,21.80
2018-07-30T14:48:27.130Z,21.66
2018-07-30T14:50:56.295Z,21.71
2018-07-30T14:53:25.064Z,22.38
2018-07-30T14:55:53.769Z,23.78
2018-07-30T14:58:22.493Z,23.60
2018-07-30T15:00:51.482Z,23.13
2018-07-30T15:03:20.636Z,24.43
2018-07-30T15:05:49.704Z,23.94
2018-07-30T15:08:18.582Z,25.65
2018-07-30T15:10:47.426Z,24.04
2018-07-30T15:13:16.174Z,26.50
2018-07-30T15:15:45.043Z,27.05
2018-07-30T15:18:16.709Z,28.10
2018-07-30T15:20:45.548Z,27.68
2018-07-30T15:23:14.414Z,28.61
2018-07-30T15:25:52.105Z,28.08
2018-07-30T15:28:20.926Z,27.90
2018-07-30T15:30:49.943Z,27.97
2018-07-30T15:33:18.703Z,29.30
2018-07-30T15:35:47.847Z,29.91
2018-07-30T15:38:16.798Z,29.94
2018-07-30T15:40:45.893Z,29.83
2018-07-30T15:43:15.763Z,31.07
2018-07-30T15:45:44.577Z,31.00
2018-07-30T15:48:18.172Z,30.10
2018-07-30T15:50:49.594Z,30.52
2018-07-30T15:53:18.392Z,30.48
2018-07-30T15:55:48.109Z,30.47
2018-07-30T15:58:16.896Z,30.07
2018-07-30T16:00:46.017Z,29.88
2018-07-30T16:03:25.800Z,30.43
2018-07-30T16:05:58.755Z,31.65
2018-07-30T16:08:31.576Z,31.76
2018-07-30T16:11:05.108Z,33.56
2018-07-30T16:13:34.083Z,30.96
2018-07-30T16:16:02.845Z,31.64
2018-07-30T16:18:31.673Z,31.02
2018-07-30T16:21:04.569Z,31.80
2018-07-30T16:23:35.024Z,32.10
2018-07-30T16:26:03.994Z,31.92
2018-07-30T16:28:37.544Z,32.28
2018-07-30T16:31:06.462Z,32.32
2018-07-30T16:33:36.380Z,31.76
2018-07-30T16:36:05.796Z,30.92
2018-07-30T16:38:35.578Z,31.89
2018-07-30T16:41:06.535Z,32.13
2018-07-30T16:43:37.497Z,32.32
2018-07-30T16:46:08.293Z,32.58
2018-07-30T16:48:37.019Z,31.92
2018-07-30T16:51:05.709Z,32.56
2018-07-30T16:53:34.740Z,32.94
2018-07-30T16:56:03.430Z,33.11
2018-07-30T16:58:32.251Z,32.74
2018-07-30T17:01:02.743Z,33.19
2018-07-30T17:03:31.625Z,33.08
2018-07-30T17:06:00.607Z,33.52
2018-07-30T17:08:31.433Z,33.09
2018-07-30T17:11:01.028Z,33.48
2018-07-30T17:13:32.190Z,33.44
2018-07-30T17:16:02.416Z,33.62
2018-07-30T17:18:32.686Z,32.92
2018-07-30T17:21:05.132Z,33.76
2018-07-30T17:23:33.920Z,33.82
2018-07-30T17:26:03.090Z,32.87
2018-07-30T17:28:31.787Z,33.78
2018-07-30T17:31:00.625Z,32.89
2018-07-30T17:33:29.661Z,33.32
2018-07-30T17:35:58.313Z,34.48
2018-07-30T17:38:27.063Z,32.96
2018-07-30T17:40:56.030Z,33.28
2018-07-30T17:43:24.741Z,33.28
2018-07-30T17:45:53.553Z,32.81
2018-07-30T17:48:22.643Z,32.75
2018-07-30T17:50:51.748Z,33.07
2018-07-30T17:53:20.534Z,32.75
2018-07-30T17:55:50.385Z,32.05
2018-07-30T17:58:19.168Z,31.86
2018-07-30T18:00:48.573Z,32.21
2018-07-30T18:03:17.671Z,32.78
2018-07-30T18:05:46.403Z,30.85
2018-07-30T18:08:15.358Z,31.42
2018-07-30T18:10:44.074Z,30.77
2018-07-30T18:13:12.874Z,31.70
2018-07-30T18:15:41.680Z,30.58
2018-07-30T18:18:10.505Z,31.73
2018-07-30T18:20:39.404Z,31.37
2018-07-30T18:23:08.287Z,30.80
2018-07-30T18:25:37.006Z,30.24
2018-07-30T18:28:05.936Z,31.73
2018-07-30T18:30:34.622Z,31.67
2018-07-30T18:33:03.544Z,30.88
2018-07-30T18:35:32.283Z,31.30
2018-07-30T18:38:04.603Z,31.57
2018-07-30T18:40:33.535Z,31.13
2018-07-30T18:43:02.289Z,30.70
2018-07-30T18:45:32.004Z,31.51
2018-07-30T18:48:00.683Z,31.79
2018-07-30T18:50:29.330Z,31.30
2018-07-30T18:52:58.070Z,31.50
2018-07-30T18:55:26.773Z,31.55
2018-07-30T18:57:55.445Z,31.02
2018-07-30T19:00:24.358Z,30.76
2018-07-30T19:02:53.357Z,31.54
2018-07-30T19:05:22.359Z,31.96
2018-07-30T19:07:51.046Z,32.38
2018-07-30T19:10:19.685Z,32.88
2018-07-30T19:12:48.543Z,32.15
2018-07-30T19:15:17.491Z,32.78
2018-07-30T19:17:46.223Z,33.17
2018-07-30T19:20:14.894Z,33.54
2018-07-30T19:22:43.871Z,32.99
2018-07-30T19:25:12.562Z,34.16
2018-07-30T19:27:41.467Z,33.87
2018-07-30T19:30:10.429Z,34.13
2018-07-30T19:32:39.109Z,34.23
2018-07-30T19:35:08.292Z,34.21
2018-07-30T19:37:37.538Z,34.35
2018-07-30T19:40:06.925Z,34.16
2018-07-30T19:42:35.718Z,34.36
2018-07-30T19:45:04.869Z,34.16
2018-07-30T19:47:34.107Z,34.12
2018-07-30T19:50:02.808Z,33.69
2018-07-30T19:52:31.746Z,33.79
2018-07-30T19:55:00.597Z,33.59
2018-07-30T19:57:29.851Z,34.09
2018-07-30T19:59:58.624Z,35.13
2018-07-30T20:02:27.567Z,33.97
2018-07-30T20:04:56.222Z,33.79
2018-07-30T20:07:24.968Z,34.04
2018-07-30T20:12:22.287Z,33.78
2018-07-30T20:14:51.262Z,34.47
2018-07-30T20:17:20.126Z,33.68
2018-07-30T20:19:48.745Z,34.01
2018-07-30T20:22:17.791Z,33.91
2018-07-30T20:24:46.511Z,33.78
2018-07-30T20:27:15.184Z,33.77
2018-07-30T20:29:43.834Z,33.74
2018-07-30T20:32:12.766Z,33.33
2018-07-30T20:34:42.434Z,33.06
2018-07-30T20:37:11.114Z,33.92
2018-07-30T20:39:39.816Z,33.25
2018-07-30T20:42:08.534Z,33.47
2018-07-30T20:44:37.186Z,33.77
2018-07-30T20:47:06.016Z,33.27
2018-07-30T20:49:35.088Z,33.06
2018-07-30T20:52:04.170Z,32.48
2018-07-30T20:54:32.889Z,32.94
2018-07-30T20:57:01.523Z,32.67
2018-07-30T20:59:30.878Z,32.67
2018-07-30T21:01:59.549Z,32.70
2018-07-30T21:04:28.535Z,33.02
2018-07-30T21:06:57.200Z,33.06
2018-07-30T21:09:26.326Z,32.94
2018-07-30T21:11:55.394Z,33.17
2018-07-30T21:14:24.070Z,33.08
2018-07-30T21:16:52.819Z,33.56
2018-07-30T21:19:21.996Z,33.30
2018-07-30T21:21:50.990Z,33.38
2018-07-30T21:24:19.849Z,33.88
2018-07-30T21:26:48.709Z,32.99
2018-07-30T21:29:17.674Z,34.23
2018-07-30T21:31:46.281Z,34.09
2018-07-30T21:34:15.225Z,34.00
2018-07-30T21:36:43.981Z,33.91
2018-07-30T21:39:14.140Z,34.40
2018-07-30T21:41:42.916Z,35.22
2018-07-30T21:44:12.176Z,34.90
2018-07-30T21:46:41.997Z,35.07
2018-07-30T21:49:10.689Z,35.36
2018-07-30T21:51:39.576Z,35.89
2018-07-30T21:54:08.518Z,36.16
2018-07-30T21:56:37.129Z,35.80
2018-07-30T21:59:05.811Z,35.93
2018-07-30T22:01:34.553Z,37.02
2018-07-30T22:04:03.504Z,36.51
2018-07-30T22:06:32.498Z,36.84
2018-07-30T22:09:01.676Z,37.84
2018-07-30T22:11:30.310Z,37.89
2018-07-30T22:13:59.272Z,37.21
2018-07-30T22:16:27.990Z,38.01
2018-07-30T22:18:57.019Z,37.71
2018-07-30T22:21:25.913Z,38.02
2018-07-30T22:23:54.843Z,37.70
2018-07-30T22:26:23.551Z,38.23
2018-07-30T22:28:52.219Z,38.49
2018-07-30T22:31:21.093Z,37.84
2018-07-30T22:33:49.760Z,38.36
2018-07-30T22:36:18.664Z,38.79
2018-07-30T22:38:47.339Z,38.87
2018-07-30T22:41:16.367Z,38.51
2018-07-30T22:43:45.614Z,38.85
2018-07-30T22:46:14.260Z,39.25
2018-07-30T22:48:43.232Z,39.24
2018-07-30T22:51:11.850Z,38.92
2018-07-30T22:53:40.513Z,39.01
2018-07-30T22:56:09.657Z,39.56
2018-07-30T22:58:38.284Z,39.62
2018-07-30T23:01:07.281Z,40.22
2018-07-30T23:03:36.262Z,40.13
2018-07-30T23:19:27.797Z,42.96
2018-07-30T23:21:56.749Z,42.31
2018-07-30T23:24:25.426Z,42.73
2018-07-30T23:26:54.045Z,41.67
2018-07-30T23:29:22.633Z,42.17
2018-07-30T23:31:51.262Z,42.33
2018-07-30T23:34:20.245Z,41.55
2018-07-30T23:36:49.228Z,41.92
2018-07-30T23:39:17.849Z,42.30
2018-07-30T23:41:49.644Z,41.83
2018-07-30T23:44:18.811Z,42.06
2018-07-30T23:46:47.865Z,41.53
2018-07-30T23:49:16.730Z,42.34
2018-07-30T23:51:45.350Z,41.76
2018-07-30T23:54:14.292Z,42.53
2018-07-30T23:56:43.227Z,42.92
2018-07-30T23:59:11.911Z,41.32
